KFFO

Wright-Patterson AFB Airport

Dayton, Ohio, USA
METAR KFFO 252156Z AUTO 23009KT 10SM CLR 30/09 A2987 RMK AO2 SLP113 T03030092 TSNO $
Observed Flight Rules
May-25 @ 21:56 UTC (26 minutes ago) Visual Flight Rules
Wind Visibility Clouds
230° at 9 knots 10 miles
  • Clear skies
Temperatures Readings
Current 30°C / 86°F
Dewpoint 9°C / 48°F
Humidity 27%
Altimeter 29.87" Hg
Pressure 1011.3 hPa
Elevation 251
METAR KFFO 252156Z AUTO 23009KT 10SM CLR 30/09 A2987 RMK AO2 SLP113 T03030092 TSNO $
Observed Flight Rules
May-25 @ 21:56 UTC
(26 minutes ago)
VFR
Wind Visibility
230° at 9 knots 10 miles
Clouds
  • Clear skies
Temperature Dewpoint
30°C / 86°F 9°C / 48°F
Humidity Altimeter Pressure
27% 29.87" Hg 1011.3 hPa